Chris — V7XF8 — position and weather

sailwx.info

Track history (hours):
 
Tides and Currents Weather Stations Pressure Air Temp Water Temp Dewpoint Dewpoint Depression Visibility Wind Speed Wind Dir Waves Ship Positions

Chris

Last reported at 2017-Apr-09 17:13 UTC. Time now 2017-Apr-26 04:08 UTC.
Position N 01°15' E 104°02'.
Warning: this ship's position is 16 days out of date.

Length 225 m; draft 13.6 m.

Type: Cargo ship. MMSI: 538004472.

Date/timePositionNaut miles runAvg speedWind from/ knotsBaromVisibWave heightAir tempDewpointWater temp
2017-Apr-09 17:13N 01°15' E 104°02'2 8.4
2017-Apr-09 17:00N 01°16' E 104°00'1 2.6
2017-Apr-09 16:30N 01°17' E 103°59'0 0.3
2017-Apr-09 15:57N 01°17' E 103°59'0 0.2
2017-Apr-09 15:30N 01°17' E 103°59'0 0.2
2017-Apr-09 15:00N 01°17' E 103°59'0 0.1
2017-Apr-09 13:51N 01°17' E 103°59'0 0.0
2017-Apr-09 13:27N 01°17' E 103°59'0 0.1
2017-Apr-09 13:00N 01°17' E 103°59'0 0.0
2017-Apr-09 12:30N 01°17' E 103°59'0 0.0
2017-Apr-09 11:54N 01°17' E 103°59'0 0.2
2017-Apr-09 11:30N 01°17' E 103°59'0 0.4
2017-Apr-09 11:00N 01°17' E 103°59'0 0.1
2017-Apr-09 10:24N 01°17' E 103°59'0 0.0
2017-Apr-09 09:57N 01°17' E 103°59'0 0.0
2017-Apr-09 09:30N 01°17' E 103°59'0 0.1
2017-Apr-09 08:24N 01°17' E 103°59'0 0.0
2017-Apr-09 07:36N 01°17' E 103°59'0 0.0
2017-Apr-09 06:42N 01°17' E 103°59'0 0.0
2017-Apr-09 06:30N 01°17' E 103°59'0 0.0
2017-Apr-09 05:48N 01°17' E 103°59'0 0.3
2017-Apr-09 05:30N 01°17' E 103°59'0 0.5
2017-Apr-09 04:57N 01°17' E 103°59'0 0.1
2017-Apr-09 04:27N 01°17' E 103°59'0 0.0
2017-Apr-09 03:57N 01°17' E 103°59'0 0.0
2017-Apr-09 03:27N 01°17' E 103°59'0 0.0
2017-Apr-09 02:48N 01°17' E 103°59'0 0.0
2017-Apr-09 02:30N 01°17' E 103°59'0 0.0
2017-Apr-09 01:57N 01°17' E 103°59'0 0.0
2017-Apr-09 01:30N 01°17' E 103°59'0 0.0
2017-Apr-09 01:00N 01°17' E 103°59'0 0.1
2017-Apr-09 00:30N 01°17' E 103°59'0 0.0
2017-Apr-08 23:57N 01°17' E 103°59'0 0.0
2017-Apr-08 23:27N 01°17' E 103°59'0 0.0
2017-Apr-08 22:57N 01°17' E 103°59'0 0.0
2017-Apr-08 22:30N 01°17' E 103°59'0 0.0
2017-Apr-08 21:57N 01°17' E 103°59'0 0.0
2017-Apr-08 21:30N 01°17' E 103°59'0 0.1
2017-Apr-08 21:00N 01°17' E 103°59'0 0.1
2017-Apr-08 20:24N 01°17' E 103°59'1 2.0
2017-Apr-08 20:00N 01°17' E 103°59'3 5.2
2017-Apr-08 19:30N 01°15' E 103°57'2 3.2
2017-Apr-08 19:00N 01°14' E 103°56'510.3
2017-Apr-08 18:30N 01°11' E 103°51'510.5
2017-Apr-08 18:00N 01°09' E 103°47'510.3
2017-Apr-08 17:30N 01°05' E 103°43'5 9.7
2017-Apr-08 16:59N 01°02' E 103°39'612.5
2017-Apr-08 16:30N 01°06' E 103°34'612.7
2017-Apr-08 16:00N 01°09' E 103°29'712.7
2017-Apr-08 15:26N 01°13' E 103°23'5713.3
2017-Apr-08 11:08N 01°44' E 102°35'314.5
2017-Apr-08 10:56N 01°45' E 102°32'614.2
2017-Apr-08 10:30N 01°48' E 102°26'714.1
2017-Apr-08 10:00N 01°51' E 102°20'2313.7
2017-Apr-08 08:21N 02°05' E 102°03'  
Track history (hours):
 
Tides and Currents Weather Stations Pressure Air Temp Water Temp Dewpoint Dewpoint Depression Visibility Wind Speed Wind Dir Waves Ship Positions

Chris

Last reported at 2017-Apr-09 17:13 UTC. Time now 2017-Apr-26 04:08 UTC.
Position N 01°15' E 104°02'.
Warning: this ship's position is 16 days out of date.

Length 225 m; draft 13.6 m.

Type: Cargo ship. MMSI: 538004472.

Date/timePositionNaut miles runAvg speedWind from/ knotsBaromVisibWave heightAir tempDewpointWater temp
2017-Apr-09 17:13N 01°15' E 104°02'2 8.4
2017-Apr-09 17:00N 01°16' E 104°00'1 2.6
2017-Apr-09 16:30N 01°17' E 103°59'0 0.3
2017-Apr-09 15:57N 01°17' E 103°59'0 0.2
2017-Apr-09 15:30N 01°17' E 103°59'0 0.2
2017-Apr-09 15:00N 01°17' E 103°59'0 0.1
2017-Apr-09 13:51N 01°17' E 103°59'0 0.0
2017-Apr-09 13:27N 01°17' E 103°59'0 0.1
2017-Apr-09 13:00N 01°17' E 103°59'0 0.0
2017-Apr-09 12:30N 01°17' E 103°59'0 0.0
2017-Apr-09 11:54N 01°17' E 103°59'0 0.2
2017-Apr-09 11:30N 01°17' E 103°59'0 0.4
2017-Apr-09 11:00N 01°17' E 103°59'0 0.1
2017-Apr-09 10:24N 01°17' E 103°59'0 0.0
2017-Apr-09 09:57N 01°17' E 103°59'0 0.0
2017-Apr-09 09:30N 01°17' E 103°59'0 0.1
2017-Apr-09 08:24N 01°17' E 103°59'0 0.0
2017-Apr-09 07:36N 01°17' E 103°59'0 0.0
2017-Apr-09 06:42N 01°17' E 103°59'0 0.0
2017-Apr-09 06:30N 01°17' E 103°59'0 0.0
2017-Apr-09 05:48N 01°17' E 103°59'0 0.3
2017-Apr-09 05:30N 01°17' E 103°59'0 0.5
2017-Apr-09 04:57N 01°17' E 103°59'0 0.1
2017-Apr-09 04:27N 01°17' E 103°59'0 0.0
2017-Apr-09 03:57N 01°17' E 103°59'0 0.0
2017-Apr-09 03:27N 01°17' E 103°59'0 0.0
2017-Apr-09 02:48N 01°17' E 103°59'0 0.0
2017-Apr-09 02:30N 01°17' E 103°59'0 0.0
2017-Apr-09 01:57N 01°17' E 103°59'0 0.0
2017-Apr-09 01:30N 01°17' E 103°59'0 0.0
2017-Apr-09 01:00N 01°17' E 103°59'0 0.1
2017-Apr-09 00:30N 01°17' E 103°59'0 0.0
2017-Apr-08 23:57N 01°17' E 103°59'0 0.0
2017-Apr-08 23:27N 01°17' E 103°59'0 0.0
2017-Apr-08 22:57N 01°17' E 103°59'0 0.0
2017-Apr-08 22:30N 01°17' E 103°59'0 0.0
2017-Apr-08 21:57N 01°17' E 103°59'0 0.0
2017-Apr-08 21:30N 01°17' E 103°59'0 0.1
2017-Apr-08 21:00N 01°17' E 103°59'0 0.1
2017-Apr-08 20:24N 01°17' E 103°59'1 2.0
2017-Apr-08 20:00N 01°17' E 103°59'3 5.2
2017-Apr-08 19:30N 01°15' E 103°57'2 3.2
2017-Apr-08 19:00N 01°14' E 103°56'510.3
2017-Apr-08 18:30N 01°11' E 103°51'510.5
2017-Apr-08 18:00N 01°09' E 103°47'510.3
2017-Apr-08 17:30N 01°05' E 103°43'5 9.7
2017-Apr-08 16:59N 01°02' E 103°39'612.5
2017-Apr-08 16:30N 01°06' E 103°34'612.7
2017-Apr-08 16:00N 01°09' E 103°29'712.7
2017-Apr-08 15:26N 01°13' E 103°23'5713.3
2017-Apr-08 11:08N 01°44' E 102°35'314.5
2017-Apr-08 10:56N 01°45' E 102°32'614.2
2017-Apr-08 10:30N 01°48' E 102°26'714.1
2017-Apr-08 10:00N 01°51' E 102°20'2313.7
2017-Apr-08 08:21N 02°05' E 102°03'  

Dump ship's entire track history